Time;durP1;ratioP1;P1;durP2;ratioP2;P2;SDS_P1;SDS_P2;PMS_P1;PMS_P2;Temp;Humidity;BMP_temperature;BMP_pressure;BME280_temperature;BME280_humidity;BME280_pressure;Samples;Min_cycle;Max_cycle;Signal;HPM_P1;HPM_P2
2023/10/11 00:00:33;;;;;;;9.63;4.35;;;17.00;99.90;;;16.79;100.00;100528.47;4925368;29;20040;-86
2023/10/11 00:03:32;;;;;;;13.25;4.70;;;17.00;99.90;;;16.82;100.00;100524.34;4915937;29;20392;-85
2023/10/11 00:05:59;;;;;;;8.93;4.55;;;17.00;99.90;;;16.83;100.00;100521.34;4919239;29;20040;-85
2023/10/11 00:08:26;;;;;;;8.43;4.35;;;17.00;99.90;;;16.80;100.00;100532.03;4918987;29;20048;-85
2023/10/11 00:10:55;;;;;;;9.40;4.53;;;17.00;99.90;;;16.81;100.00;100528.19;4929990;29;20032;-84
2023/10/11 00:13:35;;;;;;;9.73;4.53;;;17.00;99.90;;;16.80;100.00;100527.38;4928179;29;20492;-86
2023/10/11 00:16:09;;;;;;;12.43;5.25;;;17.00;99.90;;;16.77;100.00;100522.38;4915928;29;20063;-85
2023/10/11 00:18:38;;;;;;;9.60;4.75;;;17.00;99.90;;;16.77;100.00;100510.53;4915531;29;20485;-85
2023/10/11 00:21:15;;;;;;;11.30;5.22;;;17.00;99.90;;;16.78;100.00;100506.69;4929861;29;20077;-83
2023/10/11 00:23:48;;;;;;;11.57;5.03;;;17.00;99.90;;;16.78;100.00;100513.03;4919283;29;20556;-85
2023/10/11 00:26:14;;;;;;;13.07;4.75;;;16.90;99.90;;;16.67;100.00;100494.72;4915394;29;20032;-85
2023/10/11 00:28:48;;;;;;;12.70;4.53;;;16.90;99.90;;;16.66;100.00;100499.44;4922796;29;20040;-84
2023/10/11 00:31:18;;;;;;;13.65;4.97;;;16.90;99.90;;;16.61;100.00;100498.53;4922019;29;20032;-86
2023/10/11 00:33:46;;;;;;;9.60;4.35;;;16.80;99.90;;;16.62;100.00;100500.19;4926984;29;20082;-86
2023/10/11 00:36:15;;;;;;;;;;;16.80;99.90;;;16.58;100.00;100496.31;4932708;29;20393;-85
2023/10/11 00:38:48;;;;;;;11.00;4.93;;;16.80;99.90;;;16.60;100.00;100489.47;4922864;29;20371;-84
2023/10/11 00:41:20;;;;;;;12.48;4.82;;;16.80;99.90;;;16.59;100.00;100486.97;4926193;29;20028;-85
2023/10/11 00:43:54;;;;;;;9.30;4.22;;;16.80;99.90;;;16.50;100.00;100484.69;4930034;29;20055;-84
2023/10/11 00:46:26;;;;;;;14.07;4.55;;;16.70;99.90;;;16.61;100.00;100474.59;4931362;29;20055;-87
2023/10/11 00:48:54;;;;;;;7.78;4.20;;;16.80;99.90;;;16.62;100.00;100472.66;4924914;29;20036;-86
2023/10/11 00:51:30;;;;;;;8.60;4.28;;;16.80;99.90;;;16.65;100.00;100469.38;4920440;29;20051;-86
2023/10/11 00:54:01;;;;;;;8.52;4.18;;;16.80;99.90;;;16.63;100.00;100468.81;4924353;29;20516;-86
2023/10/11 00:56:33;;;;;;;7.53;4.10;;;16.80;99.90;;;16.61;100.00;100465.50;4925433;29;20102;-85
2023/10/11 00:59:08;;;;;;;11.45;4.50;;;16.70;99.90;;;16.53;100.00;100467.66;4917791;29;20044;-87
2023/10/11 01:01:36;;;;;;;13.40;4.28;;;16.70;99.90;;;16.56;100.00;100476.47;4921614;29;20492;-87
2023/10/11 01:04:02;;;;;;;;;;;16.70;99.90;;;16.59;100.00;100470.44;4932137;29;20028;-85
2023/10/11 01:06:34;;;;;;;9.52;4.35;;;16.80;99.90;;;16.56;100.00;100465.47;4912507;29;19919;-90
2023/10/11 01:09:03;;;;;;;9.93;4.50;;;16.70;99.90;;;16.53;100.00;100470.41;4932724;29;20052;-88
2023/10/11 01:11:29;;;;;;;10.55;4.10;;;16.70;99.90;;;16.50;100.00;100467.31;4922192;29;20043;-87
2023/10/11 01:13:55;;;;;;;13.85;4.75;;;16.70;99.90;;;16.49;100.00;100468.41;4922759;29;20751;-84
2023/10/11 01:16:26;;;;;;;12.93;5.07;;;16.60;99.90;;;16.45;100.00;100459.88;4929373;29;20043;-85
2023/10/11 01:18:52;;;;;;;9.88;4.40;;;16.50;99.90;;;16.31;100.00;100464.13;4918497;29;20055;-85
2023/10/11 01:21:21;;;;;;;9.35;4.60;;;16.50;99.90;;;16.30;100.00;100466.03;4934092;29;20063;-84
2023/10/11 01:23:46;;;;;;;9.00;4.13;;;16.40;99.90;;;16.19;100.00;100459.63;4930439;29;20476;-85
2023/10/11 01:26:12;;;;;;;8.73;4.13;;;16.40;99.90;;;16.22;100.00;100466.50;4928127;29;20040;-85
2023/10/11 01:28:42;;;;;;;9.43;4.07;;;16.30;99.90;;;16.18;100.00;100470.88;4931427;29;20043;-86
2023/10/11 01:31:09;;;;;;;9.27;4.32;;;16.30;99.90;;;16.13;100.00;100466.13;4935957;29;20046;-84
2023/10/11 01:33:43;;;;;;;9.57;4.60;;;16.30;99.90;;;16.10;100.00;100470.25;4919422;29;20127;-84
2023/10/11 01:36:22;;;;;;;8.27;4.20;;;16.30;99.90;;;16.10;100.00;100472.16;4924729;29;20123;-84
2023/10/11 01:38:49;;;;;;;9.70;4.20;;;16.30;99.90;;;16.02;100.00;100450.59;4933508;29;20099;-86
2023/10/11 01:41:27;;;;;;;9.43;3.80;;;16.20;99.90;;;16.05;100.00;100461.09;4922212;29;20032;-85
2023/10/11 01:43:55;;;;;;;9.43;3.70;;;16.20;99.90;;;16.03;100.00;100447.59;4929664;29;20028;-86
2023/10/11 01:46:27;;;;;;;8.23;3.90;;;16.20;99.90;;;16.09;100.00;100441.06;4934881;29;20538;-86
2023/10/11 01:48:58;;;;;;;8.90;4.30;;;16.20;99.90;;;16.16;100.00;100449.09;4924514;29;20043;-86
2023/10/11 01:51:27;;;;;;;9.15;4.72;;;16.30;99.90;;;16.18;100.00;100444.19;4921550;29;20043;-87
2023/10/11 01:53:59;;;;;;;9.32;3.88;;;16.30;99.90;;;16.24;100.00;100443.16;4915882;29;20166;-84
2023/10/11 01:56:26;;;;;;;8.80;4.05;;;16.40;99.90;;;16.34;100.00;100433.31;4925040;29;20074;-87
2023/10/11 01:58:56;;;;;;;9.95;4.00;;;16.50;99.90;;;16.47;100.00;100441.16;4933115;29;20097;-87
2023/10/11 02:01:28;;;;;;;8.30;4.20;;;16.60;99.90;;;16.59;100.00;100427.22;4926593;29;20191;-86
2023/10/11 02:04:04;;;;;;;8.30;4.13;;;16.80;99.90;;;16.66;100.00;100418.72;4929158;29;20031;-85
2023/10/11 02:06:31;;;;;;;9.45;4.60;;;16.90;99.90;;;16.74;100.00;100423.75;4929347;29;20040;-83
2023/10/11 02:08:59;;;;;;;9.40;4.07;;;16.90;99.90;;;16.82;100.00;100425.16;4915885;29;20102;-85
2023/10/11 02:11:29;;;;;;;9.00;3.90;;;17.00;99.90;;;16.87;100.00;100427.13;4933811;29;20055;-87
2023/10/11 02:13:59;;;;;;;9.15;3.88;;;17.00;99.90;;;16.91;100.00;100417.25;4926419;29;20449;-85
2023/10/11 02:16:28;;;;;;;10.57;3.78;;;17.10;99.90;;;16.95;100.00;100423.88;4932288;29;20044;-86
2023/10/11 02:19:00;;;;;;;11.77;3.97;;;17.20;99.90;;;16.92;100.00;100411.47;4933031;29;20040;-85
2023/10/11 02:21:29;;;;;;;10.15;3.97;;;17.10;99.90;;;16.93;100.00;100423.31;4930012;29;20458;-85
2023/10/11 02:23:59;;;;;;;8.90;3.60;;;17.10;99.90;;;16.89;100.00;100435.97;4924640;29;20164;-84
2023/10/11 02:26:31;;;;;;;7.28;4.00;;;17.00;99.90;;;16.83;100.00;100435.94;4933454;29;20039;-87
2023/10/11 02:29:03;;;;;;;8.05;3.88;;;17.00;99.90;;;16.80;100.00;100433.72;4917795;29;20031;-85
2023/10/11 02:31:33;;;;;;;7.35;3.60;;;17.00;99.90;;;16.87;100.00;100436.25;4924982;29;20162;-84
2023/10/11 02:34:35;;;;;;;10.32;4.10;;;17.00;99.90;;;16.89;100.00;100433.22;4930669;29;20039;-84
2023/10/11 02:37:10;;;;;;;7.35;3.83;;;17.10;99.90;;;16.96;100.00;100433.81;4925475;29;20055;-84
2023/10/11 02:39:42;;;;;;;10.55;4.10;;;17.10;99.90;;;16.89;100.00;100419.44;4930933;29;20572;-86
2023/10/11 02:42:08;;;;;;;8.38;4.10;;;17.10;99.90;;;16.98;100.00;100428.91;4915395;29;20895;-88
2023/10/11 02:44:39;;;;;;;12.00;4.03;;;17.20;99.90;;;17.05;100.00;100423.16;4930560;29;20044;-87
2023/10/11 02:47:06;;;;;;;10.98;4.00;;;17.20;99.90;;;17.00;100.00;100426.72;4921018;29;20032;-84
2023/10/11 02:49:34;;;;;;;11.68;4.03;;;17.20;99.90;;;17.04;100.00;100433.38;4928117;29;20031;-85
2023/10/11 02:52:05;;;;;;;8.57;3.97;;;17.20;99.90;;;17.02;100.00;100424.53;4924955;29;20047;-84
2023/10/11 02:54:38;;;;;;;9.65;3.97;;;17.20;99.90;;;16.97;100.00;100424.44;4933980;29;20159;-85
2023/10/11 02:57:19;;;;;;;8.48;4.00;;;17.10;99.90;;;16.97;100.00;100427.19;4932655;29;20039;-85
2023/10/11 02:59:50;;;;;;;12.40;4.15;;;17.10;99.90;;;16.99;100.00;100425.06;4928798;29;20551;-84
2023/10/11 03:02:16;;;;;;;8.20;4.07;;;17.10;99.90;;;16.97;100.00;100427.19;4921133;29;20032;-84
2023/10/11 03:04:43;;;;;;;6.80;3.70;;;17.10;99.90;;;16.97;100.00;100427.19;4931666;29;20032;-83
2023/10/11 03:07:21;;;;;;;9.98;4.05;;;17.10;99.90;;;16.96;100.00;100431.06;4931523;29;20044;-85
2023/10/11 03:09:48;;;;;;;8.47;3.70;;;17.00;99.90;;;16.91;100.00;100423.59;4925326;29;20043;-84
2023/10/11 03:12:26;;;;;;;7.93;3.80;;;17.00;99.90;;;16.93;100.00;100424.16;4925899;29;20051;-83
2023/10/11 03:14:54;;;;;;;;;;;17.00;99.90;;;16.99;100.00;100414.03;4930575;29;20068;-84
2023/10/11 03:17:21;;;;;;;13.07;3.97;;;17.10;99.90;;;17.04;100.00;100414.06;4933588;29;19977;-84
2023/10/11 03:19:49;;;;;;;8.93;3.75;;;17.20;99.90;;;17.08;100.00;100406.09;4923518;29;20051;-83
2023/10/11 03:22:21;;;;;;;;;;;17.20;99.90;;;17.13;100.00;100405.28;4929605;29;20373;-83
2023/10/11 03:24:58;;;;;;;10.35;4.10;;;17.20;99.90;;;17.13;100.00;100397.88;4930240;29;19919;-84
2023/10/11 03:27:24;;;;;;;8.43;3.70;;;17.30;99.90;;;17.15;100.00;100392.06;4929407;29;20086;-84
2023/10/11 03:29:53;;;;;;;8.40;4.00;;;17.30;99.90;;;17.16;100.00;100397.34;4926661;29;20053;-84
2023/10/11 03:32:19;;;;;;;11.65;4.20;;;17.30;99.90;;;17.14;100.00;100391.25;4931281;29;20035;-84
2023/10/11 03:34:45;;;;;;;8.25;3.90;;;17.30;99.90;;;17.13;100.00;100391.50;4928182;29;20531;-85
2023/10/11 03:37:18;;;;;;;8.93;4.15;;;17.30;99.90;;;17.18;100.00;100391.53;4924600;29;20220;-85
2023/10/11 03:39:54;;;;;;;10.90;4.55;;;17.30;99.90;;;17.25;100.00;100378.38;4939522;29;20099;-84
2023/10/11 03:42:20;;;;;;;10.32;4.20;;;17.40;99.90;;;17.23;100.00;100381.38;4944435;29;20062;-85
2023/10/11 03:44:47;;;;;;;11.60;3.90;;;17.40;99.90;;;17.24;100.00;100382.22;4944329;29;20044;-86
2023/10/11 03:47:14;;;;;;;8.85;4.22;;;17.50;99.90;;;17.31;100.00;100388.31;4964950;28;20024;-84
2023/10/11 03:52:43;;;;;;;8.25;3.90;;;17.50;99.90;;;17.42;100.00;100380.06;4916476;29;20370;-85
2023/10/11 03:55:09;;;;;;;8.85;3.80;;;17.60;99.90;;;17.39;100.00;100382.28;4917573;29;20056;-84
2023/10/11 03:57:42;;;;;;;7.82;3.83;;;17.60;99.90;;;17.44;100.00;100381.47;4917887;29;20036;-84
2023/10/11 04:00:25;;;;;;;11.30;3.83;;;17.60;99.90;;;17.49;100.00;100377.88;4920788;29;20476;-86
2023/10/11 04:02:58;;;;;;;11.77;4.10;;;17.70;99.90;;;17.53;100.00;100368.81;4929139;29;20059;-86
2023/10/11 04:05:33;;;;;;;9.48;3.50;;;17.70;99.90;;;17.54;100.00;100369.66;4916703;29;20047;-86
2023/10/11 04:08:04;;;;;;;8.23;4.13;;;17.80;99.90;;;17.51;100.00;100359.16;4922127;29;20032;-85
2023/10/11 04:10:42;;;;;;;12.93;3.92;;;17.70;99.90;;;17.49;100.00;100356.66;4929370;29;20056;-87
2023/10/11 04:13:14;;;;;;;8.40;4.00;;;17.80;99.90;;;17.54;100.00;100362.19;4921268;29;20032;-85
2023/10/11 04:15:49;;;;;;;9.63;3.90;;;17.80;99.90;;;17.57;100.00;100365.50;4924886;29;20044;-86
2023/10/11 04:21:14;;;;;;;10.25;4.07;;;17.80;99.90;;;17.51;100.00;100361.94;4929475;29;20043;-86
2023/10/11 04:23:42;;;;;;;11.65;4.20;;;17.80;99.90;;;17.56;100.00;100367.44;4932681;29;20047;-83
2023/10/11 04:26:08;;;;;;;;;;;17.80;99.90;;;17.49;100.00;100353.06;4933656;29;20534;-88
2023/10/11 04:28:41;;;;;;;11.73;4.22;;;17.80;99.90;;;17.63;100.00;100345.13;4931947;29;19919;-83
2023/10/11 04:33:51;;;;;;;8.68;4.05;;;17.90;99.90;;;17.60;100.00;100352.03;4923077;29;20044;-81
2023/10/11 04:36:20;;;;;;;8.70;4.47;;;17.90;99.90;;;17.64;100.00;100363.34;4926198;29;20035;-80
2023/10/11 04:38:50;;;;;;;8.88;4.00;;;17.80;99.90;;;17.59;100.00;100361.41;4932340;29;20440;-81
2023/10/11 04:41:18;;;;;;;9.15;4.32;;;17.90;99.90;;;17.56;100.00;100366.63;4921743;29;20110;-80
2023/10/11 04:44:04;;;;;;;7.80;4.03;;;17.80;99.90;;;17.54;100.00;100353.09;4940907;29;20062;-81
2023/10/11 04:46:31;;;;;;;10.18;4.28;;;17.80;99.90;;;17.61;100.00;100364.72;4929348;29;20044;-78
2023/10/11 04:49:18;;;;;;;10.25;4.22;;;17.80;99.90;;;17.55;100.00;100349.25;4927983;29;20469;-78
2023/10/11 04:51:45;;;;;;;9.50;3.80;;;17.80;99.90;;;17.60;100.00;100363.06;4921913;29;20611;-78
2023/10/11 04:54:14;;;;;;;9.05;4.20;;;17.80;99.90;;;17.61;100.00;100350.06;4921590;29;20032;-77
2023/10/11 05:01:58;;;;;;;10.90;3.92;;;17.90;99.90;;;17.60;100.00;100341.00;4928279;29;20496;-79
2023/10/11 05:04:30;;;;;;;11.38;4.43;;;17.90;99.90;;;17.64;100.00;100342.09;4928344;29;20114;-79
2023/10/11 05:06:56;;;;;;;10.90;4.32;;;17.90;99.90;;;17.74;100.00;100345.97;4929473;29;20488;-82
2023/10/11 05:09:37;;;;;;;8.95;4.30;;;18.00;99.90;;;17.78;100.00;100341.59;4931777;29;20046;-80
2023/10/11 05:12:19;;;;;;;13.13;4.80;;;18.00;99.90;;;17.80;100.00;100340.19;4930406;29;20054;-81
2023/10/11 05:17:31;;;;;;;9.93;4.20;;;18.10;99.90;;;17.89;100.00;100337.72;4936600;29;20050;-80
2023/10/11 05:20:08;;;;;;;11.80;4.50;;;18.10;99.90;;;17.87;100.00;100339.94;4920394;29;20485;-80
2023/10/11 05:25:16;;;;;;;8.93;4.18;;;18.10;99.90;;;17.84;100.00;100321.19;4927950;29;20063;-81
2023/10/11 05:27:57;;;;;;;10.80;3.80;;;18.10;99.90;;;17.85;100.00;100325.59;4923898;29;20068;-83
2023/10/11 05:33:14;;;;;;;11.25;4.13;;;18.10;99.90;;;17.81;100.00;100330.00;4940000;29;20098;-80
2023/10/11 05:51:51;;;;;;;11.32;3.95;;;18.20;99.90;;;17.92;100.00;100320.63;4930193;29;20487;-81
2023/10/11 05:54:18;;;;;;;9.65;3.83;;;18.20;99.90;;;17.94;100.00;100320.38;4927714;29;20193;-82
2023/10/11 05:56:47;;;;;;;9.30;4.22;;;18.20;99.90;;;17.92;100.00;100320.63;4925820;29;20031;-83
2023/10/11 05:59:16;;;;;;;8.93;3.63;;;18.20;99.90;;;17.94;100.00;100318.41;4927036;29;20036;-82
2023/10/11 06:01:45;;;;;;;10.60;4.20;;;18.20;99.90;;;17.98;100.00;100313.19;4927850;29;20036;-81
2023/10/11 06:04:13;;;;;;;10.43;4.07;;;18.20;99.90;;;18.04;100.00;100319.59;4930244;29;20043;-82
2023/10/11 06:06:45;;;;;;;10.25;4.60;;;18.30;99.90;;;18.02;100.00;100330.88;4923592;29;20485;-79
2023/10/11 06:09:17;;;;;;;9.40;4.03;;;18.30;99.90;;;17.98;100.00;100333.31;4917715;29;20044;-82
2023/10/11 06:11:50;;;;;;;8.65;3.70;;;18.20;99.90;;;18.00;100.00;100332.22;4919103;29;20032;-83
2023/10/11 06:14:20;;;;;;;9.65;4.10;;;18.20;99.90;;;18.02;100.00;100327.28;4924251;29;20070;-82
2023/10/11 06:16:49;;;;;;;11.68;3.83;;;18.20;99.90;;;17.98;100.00;100327.81;4917849;29;20079;-81
2023/10/11 06:19:18;;;;;;;10.93;3.85;;;18.20;99.90;;;17.90;100.00;100322.84;4917761;29;20055;-82
2023/10/11 06:24:34;;;;;;;9.93;4.25;;;18.20;99.90;;;17.94;100.00;100331.41;4921988;29;20040;-83
2023/10/11 06:29:37;;;;;;;9.52;3.63;;;18.10;99.90;;;17.77;100.00;100329.72;4923836;29;20046;-82
2023/10/11 06:32:11;;;;;;;8.15;3.53;;;18.00;99.90;;;17.85;100.00;100333.03;4925334;29;20040;-82
2023/10/11 06:34:38;;;;;;;10.48;4.45;;;18.10;99.90;;;17.78;100.00;100338.84;4917502;29;20115;-84
2023/10/11 06:37:06;;;;;;;11.27;4.20;;;18.00;99.90;;;17.76;100.00;100327.22;4936963;29;20047;-83
2023/10/11 06:39:34;;;;;;;9.23;3.78;;;18.00;99.90;;;17.80;100.00;100331.09;4921742;29;20134;-82
2023/10/11 06:42:14;;;;;;;11.05;4.18;;;18.00;99.90;;;17.79;100.00;100338.53;4921121;29;20044;-82
2023/10/11 06:45:01;;;;;;;10.93;4.13;;;18.00;99.90;;;17.80;100.00;100333.88;4923659;29;20397;-81
2023/10/11 06:47:35;;;;;;;11.40;3.70;;;18.00;99.90;;;17.85;100.00;100344.06;4930341;29;20044;-82
2023/10/11 06:50:13;;;;;;;9.52;3.70;;;18.10;99.90;;;17.94;100.00;100334.97;4918111;29;20044;-80
2023/10/11 06:52:45;;;;;;;15.00;4.00;;;18.10;99.90;;;17.95;100.00;100341.34;4928227;29;20126;-79
2023/10/11 06:55:17;;;;;;;14.18;3.90;;;18.20;99.90;;;18.02;100.00;100343.84;4922012;29;20079;-80
2023/10/11 06:57:54;;;;;;;9.80;3.83;;;18.20;99.90;;;18.08;100.00;100340.00;4925245;29;20388;-82
2023/10/11 07:00:27;;;;;;;10.43;3.83;;;18.30;99.90;;;18.08;100.00;100351.03;4923298;29;20040;-81
2023/10/11 07:05:48;;;;;;;10.88;3.88;;;18.30;99.90;;;18.11;100.00;100345.78;4918623;29;20052;-80
2023/10/11 07:08:17;;;;;;;10.38;4.05;;;18.30;99.90;;;18.15;100.00;100335.03;4929424;29;20122;-82
2023/10/11 07:11:16;;;;;;;10.38;3.97;;;18.40;99.90;;;18.22;100.00;100335.56;4928333;29;20063;-79
2023/10/11 07:13:57;;;;;;;9.70;3.60;;;18.50;99.90;;;18.20;100.00;100343.31;4921576;29;20051;-81
2023/10/11 07:16:28;;;;;;;9.68;3.80;;;18.40;99.90;;;18.30;100.00;100336.13;4928336;29;20040;-80
2023/10/11 07:18:57;;;;;;;10.27;4.07;;;18.50;99.90;;;18.23;100.00;100337.22;4912280;29;20040;-81
2023/10/11 07:21:41;;;;;;;9.20;3.88;;;18.50;99.90;;;18.26;100.00;100331.16;4921567;29;20086;-81
2023/10/11 07:24:55;;;;;;;8.57;3.70;;;18.50;99.90;;;18.25;100.00;100337.78;4920380;29;20036;-82
2023/10/11 07:27:08;;;;;;;10.20;3.70;;;18.50;99.90;;;18.23;100.00;100336.41;4913074;29;20135;-79
2023/10/11 07:29:42;;;;;;;6.88;3.63;;;18.50;99.90;;;18.26;100.00;100357.94;4915844;29;20119;-81
2023/10/11 07:32:09;;;;;;;10.15;4.13;;;18.50;99.90;;;18.31;100.00;100354.38;4916079;29;20433;-82
2023/10/11 07:34:37;;;;;;;12.90;4.07;;;18.50;99.90;;;18.25;100.00;100361.81;4931227;29;20047;-80
2023/10/11 07:37:05;;;;;;;;;;;18.50;99.90;;;18.28;100.00;100360.41;4922157;29;20805;-80
2023/10/11 07:39:34;;;;;;;11.52;4.03;;;18.50;99.90;;;18.30;100.00;100363.72;4932182;29;19978;-83
2023/10/11 07:42:06;;;;;;;8.93;3.53;;;18.50;99.90;;;18.37;100.00;100375.34;4922473;29;20174;-80
2023/10/11 07:44:36;;;;;;;11.48;3.80;;;18.60;99.90;;;18.44;100.00;100381.41;4916945;29;20036;-82
2023/10/11 07:47:15;;;;;;;9.32;3.70;;;18.60;99.90;;;18.49;100.00;100377.84;4917876;29;20044;-82
2023/10/11 07:49:41;;;;;;;10.88;3.92;;;18.70;99.90;;;18.51;100.00;100365.38;4921125;29;20377;-81
2023/10/11 07:52:09;;;;;;;9.98;3.80;;;18.70;99.90;;;18.57;100.00;100357.13;4926685;29;20039;-78
2023/10/11 07:54:41;;;;;;;9.38;3.45;;;18.70;99.90;;;18.60;100.00;100362.09;4922012;29;20488;-80
2023/10/11 07:57:13;;;;;;;9.65;3.90;;;18.80;99.90;;;18.67;100.00;100357.09;4919329;29;20556;-82
2023/10/11 07:59:39;;;;;;;9.60;3.58;;;18.90;99.90;;;18.95;100.00;100363.13;4923172;29;20564;-81
2023/10/11 08:02:26;;;;;;;7.20;3.50;;;19.10;99.90;;;18.97;100.00;100367.28;4919228;29;20035;-81
2023/10/11 08:04:53;;;;;;;10.32;3.75;;;;;;;19.35;100.00;100358.59;4920903;29;20040;-83
2023/10/11 08:07:21;;;;;;;9.88;3.78;;;;;;;19.45;100.00;100368.78;4923007;29;20036;-83
2023/10/11 08:09:47;;;;;;;9.82;4.20;;;;;;;19.61;100.00;100375.06;4918409;29;20052;-83
2023/10/11 08:12:23;;;;;;;9.88;4.05;;;;;;;19.70;100.00;100378.06;4920773;29;20475;-83
2023/10/11 08:14:53;;;;;;;9.02;3.60;;;;;;;19.79;100.00;100373.59;4922028;29;20055;-81
2023/10/11 08:17:20;;;;;;;9.45;3.40;;;;;;;19.86;100.00;100359.44;4922689;29;20040;-82
2023/10/11 08:19:53;;;;;;;8.73;3.60;;;;;;;20.06;100.00;100358.50;4921058;29;20036;-84
2023/10/11 08:22:22;;;;;;;10.65;3.83;;;;;;;20.15;100.00;100360.66;4915658;29;20103;-83
2023/10/11 08:24:49;;;;;;;7.05;3.20;;;;;;;20.30;100.00;100354.16;4923601;29;20137;-82
2023/10/11 08:27:27;;;;;;;9.33;3.60;;;;;;;20.30;100.00;100349.47;4915433;29;20048;-83
2023/10/11 08:30:05;;;;;;;6.40;3.10;;;;;;;20.41;100.00;100348.25;4915923;29;20036;-81
2023/10/11 08:32:42;;;;;;;6.95;3.20;;;;;;;20.43;100.00;100349.91;4921950;29;20044;-83
2023/10/11 08:35:10;;;;;;;12.68;3.33;;;;;;;20.61;99.61;100337.25;4918611;29;20052;-84
2023/10/11 08:37:37;;;;;;;9.27;3.50;;;;;;;20.81;100.00;100339.88;4918953;29;20044;-82
2023/10/11 08:40:20;;;;;;;8.75;3.58;;;;;;;20.81;97.26;100345.41;4915812;29;20553;-80
2023/10/11 08:42:50;;;;;;;11.27;3.45;;;;;;;20.83;94.16;100332.09;4914777;29;20554;-81
2023/10/11 08:45:28;;;;;;;7.55;3.20;;;;;;;20.99;92.92;100337.47;4927101;29;20460;-83
2023/10/11 08:47:57;;;;;;;8.50;3.40;;;;;;;21.11;94.52;100337.88;4916191;29;20119;-80
2023/10/11 08:50:27;;;;;;;8.57;3.30;;;;;;;21.36;92.87;100335.91;4916303;29;20032;-84
2023/10/11 08:52:55;;;;;;;6.28;3.10;;;;;;;21.26;90.06;100336.03;4920918;29;20040;-81
2023/10/11 08:55:24;;;;;;;9.02;3.45;;;;;;;21.36;90.32;100346.19;4930340;29;20436;-79
2023/10/11 08:57:53;;;;;;;6.88;3.60;;;;;;;21.33;90.73;100339.25;4919801;29;20050;-81
2023/10/11 09:00:29;;;;;;;8.13;2.97;;;;;;;20.94;87.64;100343.03;4923316;29;20040;-82
2023/10/11 09:03:17;;;;;;;8.80;3.15;;;;;;;21.17;89.43;100349.72;4933113;29;20082;-82
2023/10/11 09:05:43;;;;;;;8.32;3.10;;;;;;;21.07;87.82;100341.50;4925907;29;20043;-84
2023/10/11 09:08:26;;;;;;;9.93;3.45;;;;;;;21.48;92.66;100365.16;4919221;29;20128;-83
2023/10/11 09:11:06;;;;;;;7.53;3.40;;;;;;;21.75;89.75;100366.47;4918007;29;20050;-84
2023/10/11 09:13:36;;;;;;;9.13;3.50;;;;;;;21.77;88.81;100370.63;4928673;29;20040;-83
2023/10/11 09:16:12;;;;;;;9.15;3.03;;;;;;;21.72;86.35;100355.97;4924432;29;20043;-83
2023/10/11 09:18:39;;;;;;;9.77;3.22;;;;;;;21.45;83.55;100351.88;4923843;29;20040;-81
2023/10/11 09:21:15;;;;;;;9.23;3.75;;;;;;;21.41;87.32;100368.31;4922528;29;20071;-80
2023/10/11 09:23:48;;;;;;;8.02;3.30;;;;;;;21.73;85.99;100343.75;4921097;29;20033;-81
2023/10/11 09:26:32;;;;;;;10.02;3.70;;;;;;;21.48;87.66;100352.13;4921146;29;20083;-80
2023/10/11 09:29:02;;;;;;;6.55;3.28;;;;;;;21.63;87.26;100353.84;4920730;29;20028;-79
2023/10/11 09:31:32;;;;;;;7.60;3.45;;;;;;;21.86;88.19;100345.78;4928667;29;20043;-82
2023/10/11 09:34:07;;;;;;;8.02;3.50;;;;;;;21.67;85.71;100349.38;4917920;29;20044;-82
2023/10/11 09:36:34;;;;;;;8.90;3.85;;;;;;;21.71;88.10;100352.41;4923904;29;20036;-82
2023/10/11 09:39:03;;;;;;;8.90;3.53;;;;;;;21.64;88.63;100352.75;4921156;29;20036;-82
2023/10/11 09:41:53;;;;;;;6.47;3.13;;;;;;;21.72;87.03;100336.56;4931346;29;20059;-81
2023/10/11 09:44:28;;;;;;;6.10;3.40;;;;;;;21.77;87.28;100336.50;4924295;29;20449;-82
2023/10/11 09:46:57;;;;;;;7.03;3.20;;;;;;;21.68;87.25;100339.94;4918026;29;20078;-81
2023/10/11 09:49:26;;;;;;;9.52;3.70;;;;;;;21.70;87.65;100346.00;4918131;29;20404;-81
2023/10/11 09:51:53;;;;;;;8.40;3.50;;;;;;;21.72;88.21;100350.44;4922579;29;20043;-81
2023/10/11 09:54:20;;;;;;;8.77;3.95;;;;;;;21.59;88.42;100341.69;4924254;29;20122;-81
2023/10/11 09:57:04;;;;;;;8.77;3.58;;;;;;;21.62;89.82;100341.09;4918790;29;20103;-81
2023/10/11 09:59:59;;;;;;;10.48;3.40;;;;;;;22.05;87.35;100336.63;4923624;29;20413;-81
2023/10/11 10:02:38;;;;;;;9.68;3.65;;;;;;;22.65;82.74;100337.88;4924247;29;20047;-82
2023/10/11 10:05:05;;;;;;;10.95;3.47;;;;;;;23.57;79.02;100348.28;4917973;29;20099;-82
2023/10/11 10:07:45;;;;;;;8.33;3.00;;;;;;;24.46;70.60;100333.13;4922872;29;20069;-84
2023/10/11 10:10:13;;;;;;;6.05;3.08;;;;;;;25.23;65.57;100333.00;4918125;29;20040;-83
2023/10/11 10:12:59;;;;;;;8.65;3.25;;;;;;;24.78;63.64;100333.97;4921282;29;20663;-83
2023/10/11 10:15:32;;;;;;;8.75;3.47;;;;;;;25.35;63.64;100338.75;4920668;29;20033;-81
2023/10/11 10:18:03;;;;;;;6.35;3.15;;;;;;;25.87;61.99;100331.63;4918913;29;20062;-82
2023/10/11 10:20:41;;;;;;;9.85;3.90;;;;;;;26.34;60.06;100335.75;4919370;29;20032;-83
2023/10/11 10:23:16;;;;;;;8.15;3.15;;;;;;;26.33;58.80;100337.69;4922731;29;20126;-84
2023/10/11 10:25:46;;;;;;;11.20;4.18;;;;;;;27.21;56.34;100336.59;4924404;29;20076;-85
2023/10/11 10:28:37;;;;;;;8.65;3.25;;;;;;;27.50;53.71;100334.94;4927705;29;20044;-81
2023/10/11 10:31:11;;;;;;;8.05;3.25;;;;;;;27.49;55.06;100338.91;4927471;29;20058;-83
2023/10/11 10:33:41;;;;;;;7.53;3.60;;;;;;;27.51;54.52;100325.41;4931942;29;20067;-84
2023/10/11 10:36:28;;;;;;;12.02;3.67;;;;;;;27.47;53.10;100325.25;4932045;29;20512;-82
2023/10/11 10:39:01;;;;;;;6.47;3.20;;;;;;;27.10;55.34;100330.56;4928524;29;20555;-85
2023/10/11 10:41:27;;;;;;;9.07;3.70;;;;;;;26.97;56.07;100330.47;4929209;29;20047;-84
2023/10/11 10:44:13;;;;;;;7.70;3.40;;;;;;;27.14;56.80;100326.75;4931759;29;20392;-85
2023/10/11 10:46:52;;;;;;;8.63;3.50;;;;;;;26.78;55.51;100319.63;4921408;29;20047;-82
2023/10/11 10:49:20;;;;;;;8.30;3.58;;;;;;;27.12;54.43;100312.28;4923267;29;20063;-81
2023/10/11 10:51:53;;;;;;;8.60;3.38;;;;;;;26.95;55.41;100306.75;4924869;29;20068;-84
2023/10/11 10:54:23;;;;;;;10.13;3.13;;;;;;;26.97;56.31;100315.63;4918886;29;20044;-87
2023/10/11 10:56:53;;;;;;;7.75;3.53;;;;;;;26.72;55.30;100332.16;4925339;29;20031;-87
2023/10/11 10:59:22;;;;;;;9.02;3.30;;;;;;;26.90;52.80;100327.34;4922151;29;20040;-83
2023/10/11 11:01:50;;;;;;;10.63;3.60;;;;;;;27.20;52.60;100324.59;4912842;29;20051;-83
2023/10/11 11:04:20;;;;;;;10.75;3.38;;;;;;;27.54;51.96;100342.34;4918489;29;20043;-82
2023/10/11 11:06:48;;;;;;;11.50;3.47;;;;;;;26.98;50.10;100283.69;4916632;29;20562;-87
2023/10/11 11:09:25;;;;;;;9.98;3.65;;;;;;;27.51;51.67;100311.41;4921197;29;20043;-88
2023/10/11 11:11:58;;;;;;;7.97;3.45;;;;;;;27.26;49.17;100314.00;4920770;29;20059;-86
2023/10/11 11:14:25;;;;;;;10.10;3.80;;;;;;;27.25;52.26;100310.38;4922034;29;20400;-85
2023/10/11 11:17:09;;;;;;;9.65;3.50;;;;;;;27.63;52.15;100311.47;4917495;29;20137;-88
2023/10/11 11:19:35;;;;;;;13.32;3.75;;;;;;;27.08;50.31;100300.13;4922874;29;20040;-85
2023/10/11 11:22:12;;;;;;;8.38;3.38;;;;;;;26.20;55.44;100311.56;4934096;29;20527;-85
2023/10/11 11:24:41;;;;;;;9.93;3.75;;;;;;;26.19;57.16;100321.13;4924092;29;20044;-83
2023/10/11 11:27:25;;;;;;;10.35;3.55;;;;;;;26.41;58.13;100322.91;4916962;29;20123;-87
2023/10/11 11:30:02;;;;;;;12.35;3.80;;;;;;;26.93;55.70;100329.50;4930710;29;20047;-82
2023/10/11 11:32:45;;;;;;;11.50;3.35;;;;;;;27.18;53.36;100315.69;4916516;29;20153;-83
2023/10/11 11:35:31;;;;;;;9.30;3.35;;;;;;;27.13;52.80;100319.50;4923311;29;20144;-81